sensor_id;sensor_type;location;lat;lon;timestamp;temperature;humidity
33881;DHT22;20172;47.530;10.256;2022-07-06T00:01:19;17.00;99.90
33881;DHT22;20172;47.530;10.256;2022-07-06T00:03:45;16.50;99.90
33881;DHT22;20172;47.530;10.256;2022-07-06T00:06:14;16.20;99.90
33881;DHT22;20172;47.530;10.256;2022-07-06T00:08:42;15.80;99.90
33881;DHT22;20172;47.530;10.256;2022-07-06T00:11:07;15.70;99.90
33881;DHT22;20172;47.530;10.256;2022-07-06T00:13:33;15.50;99.90
33881;DHT22;20172;47.530;10.256;2022-07-06T00:15:58;15.50;99.90
33881;DHT22;20172;47.530;10.256;2022-07-06T00:18:24;15.50;99.90
33881;DHT22;20172;47.530;10.256;2022-07-06T00:20:49;15.60;99.90
33881;DHT22;20172;47.530;10.256;2022-07-06T00:23:15;15.60;99.90
33881;DHT22;20172;47.530;10.256;2022-07-06T00:25:40;15.40;99.90
33881;DHT22;20172;47.530;10.256;2022-07-06T00:28:06;15.00;99.90
33881;DHT22;20172;47.530;10.256;2022-07-06T00:30:31;14.90;99.90
33881;DHT22;20172;47.530;10.256;2022-07-06T00:32:57;15.00;99.90
33881;DHT22;20172;47.530;10.256;2022-07-06T00:35:24;15.10;99.90
33881;DHT22;20172;47.530;10.256;2022-07-06T00:37:49;15.10;99.90
33881;DHT22;20172;47.530;10.256;2022-07-06T00:40:15;15.00;99.90
33881;DHT22;20172;47.530;10.256;2022-07-06T00:42:44;14.70;99.90
33881;DHT22;20172;47.530;10.256;2022-07-06T00:45:10;14.60;99.90
33881;DHT22;20172;47.530;10.256;2022-07-06T00:47:36;14.40;99.90
33881;DHT22;20172;47.530;10.256;2022-07-06T00:50:05;14.50;99.90
33881;DHT22;20172;47.530;10.256;2022-07-06T00:52:47;14.60;99.90
33881;DHT22;20172;47.530;10.256;2022-07-06T00:55:13;14.50;99.90
33881;DHT22;20172;47.530;10.256;2022-07-06T00:57:39;14.30;99.90
33881;DHT22;20172;47.530;10.256;2022-07-06T01:00:05;14.20;99.90
33881;DHT22;20172;47.530;10.256;2022-07-06T01:02:33;14.20;99.90
33881;DHT22;20172;47.530;10.256;2022-07-06T01:04:59;14.30;99.90
33881;DHT22;20172;47.530;10.256;2022-07-06T01:07:25;14.50;99.90
33881;DHT22;20172;47.530;10.256;2022-07-06T01:09:51;14.60;99.90
33881;DHT22;20172;47.530;10.256;2022-07-06T01:12:17;14.70;99.90
33881;DHT22;20172;47.530;10.256;2022-07-06T01:14:42;14.60;99.90
33881;DHT22;20172;47.530;10.256;2022-07-06T01:17:08;14.60;99.90
33881;DHT22;20172;47.530;10.256;2022-07-06T01:19:33;14.70;99.90
33881;DHT22;20172;47.530;10.256;2022-07-06T01:21:59;14.70;99.90
33881;DHT22;20172;47.530;10.256;2022-07-06T01:24:25;14.60;99.90
33881;DHT22;20172;47.530;10.256;2022-07-06T01:26:50;14.60;99.90
33881;DHT22;20172;47.530;10.256;2022-07-06T01:29:16;14.60;99.90
33881;DHT22;20172;47.530;10.256;2022-07-06T01:31:49;14.60;99.90
33881;DHT22;20172;47.530;10.256;2022-07-06T01:34:17;14.50;99.90
33881;DHT22;20172;47.530;10.256;2022-07-06T01:36:43;14.60;99.90
33881;DHT22;20172;47.530;10.256;2022-07-06T01:39:09;14.60;99.90
33881;DHT22;20172;47.530;10.256;2022-07-06T01:41:35;14.60;99.90
33881;DHT22;20172;47.530;10.256;2022-07-06T01:44:01;14.50;99.90
33881;DHT22;20172;47.530;10.256;2022-07-06T01:46:26;14.50;99.90
33881;DHT22;20172;47.530;10.256;2022-07-06T01:48:52;14.50;99.90
33881;DHT22;20172;47.530;10.256;2022-07-06T01:51:18;14.60;99.90
33881;DHT22;20172;47.530;10.256;2022-07-06T01:53:43;14.60;99.90
33881;DHT22;20172;47.530;10.256;2022-07-06T01:56:09;14.70;99.90
33881;DHT22;20172;47.530;10.256;2022-07-06T01:58:34;14.50;99.90
33881;DHT22;20172;47.530;10.256;2022-07-06T02:01:00;14.40;99.90
33881;DHT22;20172;47.530;10.256;2022-07-06T02:03:26;14.20;99.90
33881;DHT22;20172;47.530;10.256;2022-07-06T02:05:51;14.00;99.90
33881;DHT22;20172;47.530;10.256;2022-07-06T02:08:17;13.80;99.90
33881;DHT22;20172;47.530;10.256;2022-07-06T02:10:43;13.70;99.90
33881;DHT22;20172;47.530;10.256;2022-07-06T02:13:09;13.80;99.90
33881;DHT22;20172;47.530;10.256;2022-07-06T02:15:35;13.70;99.90
33881;DHT22;20172;47.530;10.256;2022-07-06T02:18:00;13.50;99.90
33881;DHT22;20172;47.530;10.256;2022-07-06T02:20:26;13.50;99.90
33881;DHT22;20172;47.530;10.256;2022-07-06T02:22:51;13.40;99.90
33881;DHT22;20172;47.530;10.256;2022-07-06T02:25:17;13.40;99.90
33881;DHT22;20172;47.530;10.256;2022-07-06T02:27:42;13.50;99.90
33881;DHT22;20172;47.530;10.256;2022-07-06T02:30:08;13.50;99.90
33881;DHT22;20172;47.530;10.256;2022-07-06T02:32:33;13.40;99.90
33881;DHT22;20172;47.530;10.256;2022-07-06T02:34:59;13.30;99.90
33881;DHT22;20172;47.530;10.256;2022-07-06T02:37:24;13.40;99.90
33881;DHT22;20172;47.530;10.256;2022-07-06T02:39:50;13.50;99.90
33881;DHT22;20172;47.530;10.256;2022-07-06T02:42:15;13.60;99.90
33881;DHT22;20172;47.530;10.256;2022-07-06T02:44:41;13.70;99.90
33881;DHT22;20172;47.530;10.256;2022-07-06T02:47:06;13.80;99.90
33881;DHT22;20172;47.530;10.256;2022-07-06T02:49:32;13.70;99.90
33881;DHT22;20172;47.530;10.256;2022-07-06T02:51:58;13.60;99.90
33881;DHT22;20172;47.530;10.256;2022-07-06T02:54:23;13.60;99.90
33881;DHT22;20172;47.530;10.256;2022-07-06T02:56:49;13.50;99.90
33881;DHT22;20172;47.530;10.256;2022-07-06T02:59:18;13.30;99.90
33881;DHT22;20172;47.530;10.256;2022-07-06T03:01:44;13.10;99.90
33881;DHT22;20172;47.530;10.256;2022-07-06T03:04:09;13.00;99.90
33881;DHT22;20172;47.530;10.256;2022-07-06T03:06:35;13.10;99.90
33881;DHT22;20172;47.530;10.256;2022-07-06T03:09:00;13.10;99.90
33881;DHT22;20172;47.530;10.256;2022-07-06T03:11:26;13.10;99.90
33881;DHT22;20172;47.530;10.256;2022-07-06T03:13:51;13.10;99.90
33881;DHT22;20172;47.530;10.256;2022-07-06T03:16:17;13.10;99.90
33881;DHT22;20172;47.530;10.256;2022-07-06T03:18:42;13.20;99.90
33881;DHT22;20172;47.530;10.256;2022-07-06T03:21:08;13.20;99.90
33881;DHT22;20172;47.530;10.256;2022-07-06T03:23:33;13.20;99.90
33881;DHT22;20172;47.530;10.256;2022-07-06T03:25:59;13.40;99.90
33881;DHT22;20172;47.530;10.256;2022-07-06T03:28:24;13.40;99.90
33881;DHT22;20172;47.530;10.256;2022-07-06T03:30:50;13.50;99.90
33881;DHT22;20172;47.530;10.256;2022-07-06T03:33:15;13.50;99.90
33881;DHT22;20172;47.530;10.256;2022-07-06T03:35:41;13.60;99.90
33881;DHT22;20172;47.530;10.256;2022-07-06T03:38:06;13.60;99.90
33881;DHT22;20172;47.530;10.256;2022-07-06T03:40:32;13.50;99.90
33881;DHT22;20172;47.530;10.256;2022-07-06T03:42:58;13.40;99.90
33881;DHT22;20172;47.530;10.256;2022-07-06T03:45:24;13.40;99.90
33881;DHT22;20172;47.530;10.256;2022-07-06T03:47:49;13.50;99.90
33881;DHT22;20172;47.530;10.256;2022-07-06T03:50:15;13.50;99.90
33881;DHT22;20172;47.530;10.256;2022-07-06T03:52:40;13.50;99.90
33881;DHT22;20172;47.530;10.256;2022-07-06T03:55:09;13.50;99.90
33881;DHT22;20172;47.530;10.256;2022-07-06T03:57:35;13.60;99.90
33881;DHT22;20172;47.530;10.256;2022-07-06T04:00:01;13.60;99.90
33881;DHT22;20172;47.530;10.256;2022-07-06T04:02:27;13.60;99.90
33881;DHT22;20172;47.530;10.256;2022-07-06T04:04:52;13.70;99.90
33881;DHT22;20172;47.530;10.256;2022-07-06T04:07:18;13.70;99.90
33881;DHT22;20172;47.530;10.256;2022-07-06T04:09:43;13.80;99.90
33881;DHT22;20172;47.530;10.256;2022-07-06T04:12:09;13.80;99.90
33881;DHT22;20172;47.530;10.256;2022-07-06T04:14:34;13.80;99.90
33881;DHT22;20172;47.530;10.256;2022-07-06T04:17:00;13.60;99.90
33881;DHT22;20172;47.530;10.256;2022-07-06T04:19:45;13.60;99.90
33881;DHT22;20172;47.530;10.256;2022-07-06T04:22:11;13.70;99.90
33881;DHT22;20172;47.530;10.256;2022-07-06T04:24:36;13.80;99.90
33881;DHT22;20172;47.530;10.256;2022-07-06T04:27:02;14.00;99.90
33881;DHT22;20172;47.530;10.256;2022-07-06T04:29:28;14.00;99.90
33881;DHT22;20172;47.530;10.256;2022-07-06T04:31:53;14.00;99.90
33881;DHT22;20172;47.530;10.256;2022-07-06T04:34:19;14.10;99.90
33881;DHT22;20172;47.530;10.256;2022-07-06T04:36:44;14.10;99.90
33881;DHT22;20172;47.530;10.256;2022-07-06T04:39:10;14.10;99.90
33881;DHT22;20172;47.530;10.256;2022-07-06T04:41:35;14.00;99.90
33881;DHT22;20172;47.530;10.256;2022-07-06T04:44:01;13.90;99.90
33881;DHT22;20172;47.530;10.256;2022-07-06T04:46:26;14.00;99.90
33881;DHT22;20172;47.530;10.256;2022-07-06T04:48:52;14.10;99.90
33881;DHT22;20172;47.530;10.256;2022-07-06T04:51:17;14.20;99.90
33881;DHT22;20172;47.530;10.256;2022-07-06T04:53:43;14.20;99.90
33881;DHT22;20172;47.530;10.256;2022-07-06T04:56:08;14.40;99.90
33881;DHT22;20172;47.530;10.256;2022-07-06T04:58:34;14.40;99.90
33881;DHT22;20172;47.530;10.256;2022-07-06T05:00:59;14.60;99.90
33881;DHT22;20172;47.530;10.256;2022-07-06T05:03:25;14.80;99.90
33881;DHT22;20172;47.530;10.256;2022-07-06T05:05:50;14.80;99.90
33881;DHT22;20172;47.530;10.256;2022-07-06T05:08:16;14.70;99.90
33881;DHT22;20172;47.530;10.256;2022-07-06T05:10:41;14.80;99.90
33881;DHT22;20172;47.530;10.256;2022-07-06T05:13:07;14.60;99.90
33881;DHT22;20172;47.530;10.256;2022-07-06T05:15:33;14.60;99.90
33881;DHT22;20172;47.530;10.256;2022-07-06T05:17:58;14.80;99.90
33881;DHT22;20172;47.530;10.256;2022-07-06T05:20:24;15.00;99.90
33881;DHT22;20172;47.530;10.256;2022-07-06T05:22:49;15.40;99.90
33881;DHT22;20172;47.530;10.256;2022-07-06T05:25:15;15.40;99.90
33881;DHT22;20172;47.530;10.256;2022-07-06T05:27:40;15.60;99.90
33881;DHT22;20172;47.530;10.256;2022-07-06T05:30:06;15.80;99.90
33881;DHT22;20172;47.530;10.256;2022-07-06T05:32:31;15.90;99.90
33881;DHT22;20172;47.530;10.256;2022-07-06T05:34:57;16.00;99.90
33881;DHT22;20172;47.530;10.256;2022-07-06T05:37:22;16.30;99.90
33881;DHT22;20172;47.530;10.256;2022-07-06T05:39:48;16.30;99.90
33881;DHT22;20172;47.530;10.256;2022-07-06T05:42:15;16.30;99.90
33881;DHT22;20172;47.530;10.256;2022-07-06T05:44:40;16.10;99.90
33881;DHT22;20172;47.530;10.256;2022-07-06T05:47:06;16.10;99.90
33881;DHT22;20172;47.530;10.256;2022-07-06T05:49:50;16.50;99.90
33881;DHT22;20172;47.530;10.256;2022-07-06T05:52:34;16.70;99.90
33881;DHT22;20172;47.530;10.256;2022-07-06T05:55:00;16.90;99.90
33881;DHT22;20172;47.530;10.256;2022-07-06T05:57:25;17.20;99.90
33881;DHT22;20172;47.530;10.256;2022-07-06T05:59:51;17.40;99.90
33881;DHT22;20172;47.530;10.256;2022-07-06T06:02:17;17.60;99.90
33881;DHT22;20172;47.530;10.256;2022-07-06T06:04:42;17.70;99.90
33881;DHT22;20172;47.530;10.256;2022-07-06T06:07:08;17.90;99.90
33881;DHT22;20172;47.530;10.256;2022-07-06T06:09:33;17.90;99.90
33881;DHT22;20172;47.530;10.256;2022-07-06T06:11:59;18.00;99.90
33881;DHT22;20172;47.530;10.256;2022-07-06T06:14:24;18.00;99.90
33881;DHT22;20172;47.530;10.256;2022-07-06T06:16:50;18.00;99.90
33881;DHT22;20172;47.530;10.256;2022-07-06T06:19:15;18.10;99.90
33881;DHT22;20172;47.530;10.256;2022-07-06T06:21:41;18.20;99.90
33881;DHT22;20172;47.530;10.256;2022-07-06T06:24:06;18.30;99.90
33881;DHT22;20172;47.530;10.256;2022-07-06T06:26:32;18.40;99.90
33881;DHT22;20172;47.530;10.256;2022-07-06T06:28:58;18.50;99.90
33881;DHT22;20172;47.530;10.256;2022-07-06T06:31:23;18.60;99.90
33881;DHT22;20172;47.530;10.256;2022-07-06T06:33:49;18.70;99.90
33881;DHT22;20172;47.530;10.256;2022-07-06T06:36:14;18.90;99.90
33881;DHT22;20172;47.530;10.256;2022-07-06T06:38:40;19.00;99.90
33881;DHT22;20172;47.530;10.256;2022-07-06T06:41:05;19.00;99.90
33881;DHT22;20172;47.530;10.256;2022-07-06T06:43:31;18.70;99.90
33881;DHT22;20172;47.530;10.256;2022-07-06T06:45:56;18.70;99.90
33881;DHT22;20172;47.530;10.256;2022-07-06T06:48:22;18.60;99.90
33881;DHT22;20172;47.530;10.256;2022-07-06T06:50:48;18.80;99.90
33881;DHT22;20172;47.530;10.256;2022-07-06T06:53:13;19.00;99.90
33881;DHT22;20172;47.530;10.256;2022-07-06T06:55:39;19.20;99.90
33881;DHT22;20172;47.530;10.256;2022-07-06T06:58:05;19.30;99.90
33881;DHT22;20172;47.530;10.256;2022-07-06T07:00:30;19.50;99.90
33881;DHT22;20172;47.530;10.256;2022-07-06T07:02:56;19.60;99.90
33881;DHT22;20172;47.530;10.256;2022-07-06T07:05:21;19.70;99.90
33881;DHT22;20172;47.530;10.256;2022-07-06T07:07:47;19.80;99.90
33881;DHT22;20172;47.530;10.256;2022-07-06T07:10:12;19.90;99.90
33881;DHT22;20172;47.530;10.256;2022-07-06T07:12:42;20.10;99.90
33881;DHT22;20172;47.530;10.256;2022-07-06T07:15:07;20.00;99.90
33881;DHT22;20172;47.530;10.256;2022-07-06T07:17:33;20.00;99.90
33881;DHT22;20172;47.530;10.256;2022-07-06T07:19:58;20.10;99.90
33881;DHT22;20172;47.530;10.256;2022-07-06T07:22:24;20.30;99.90
33881;DHT22;20172;47.530;10.256;2022-07-06T07:24:49;20.40;99.90
33881;DHT22;20172;47.530;10.256;2022-07-06T07:27:15;20.40;99.90
33881;DHT22;20172;47.530;10.256;2022-07-06T07:29:40;20.60;99.90
33881;DHT22;20172;47.530;10.256;2022-07-06T07:32:06;20.60;99.90
33881;DHT22;20172;47.530;10.256;2022-07-06T07:34:31;20.80;99.90
33881;DHT22;20172;47.530;10.256;2022-07-06T07:36:57;20.90;99.90
33881;DHT22;20172;47.530;10.256;2022-07-06T07:39:23;21.00;99.90
33881;DHT22;20172;47.530;10.256;2022-07-06T07:41:49;21.10;99.90
33881;DHT22;20172;47.530;10.256;2022-07-06T07:44:18;21.10;99.90
33881;DHT22;20172;47.530;10.256;2022-07-06T07:46:43;21.20;99.90
33881;DHT22;20172;47.530;10.256;2022-07-06T07:49:09;21.30;99.90
33881;DHT22;20172;47.530;10.256;2022-07-06T07:51:35;21.40;99.90
33881;DHT22;20172;47.530;10.256;2022-07-06T07:54:00;21.50;99.90
33881;DHT22;20172;47.530;10.256;2022-07-06T07:56:26;21.70;99.90
33881;DHT22;20172;47.530;10.256;2022-07-06T07:58:51;21.90;99.90
33881;DHT22;20172;47.530;10.256;2022-07-06T08:01:17;22.10;99.90
33881;DHT22;20172;47.530;10.256;2022-07-06T08:03:42;22.30;99.90
33881;DHT22;20172;47.530;10.256;2022-07-06T08:06:08;22.40;99.90
33881;DHT22;20172;47.530;10.256;2022-07-06T08:08:33;22.40;99.90
33881;DHT22;20172;47.530;10.256;2022-07-06T08:10:59;22.50;99.90
33881;DHT22;20172;47.530;10.256;2022-07-06T08:13:24;22.70;99.90
33881;DHT22;20172;47.530;10.256;2022-07-06T08:15:50;23.00;99.90
33881;DHT22;20172;47.530;10.256;2022-07-06T08:18:15;23.20;99.90
33881;DHT22;20172;47.530;10.256;2022-07-06T08:20:41;23.50;99.90
33881;DHT22;20172;47.530;10.256;2022-07-06T08:23:06;23.50;99.90
33881;DHT22;20172;47.530;10.256;2022-07-06T08:25:32;23.60;99.90
33881;DHT22;20172;47.530;10.256;2022-07-06T08:27:57;23.80;99.90
33881;DHT22;20172;47.530;10.256;2022-07-06T08:30:23;23.90;99.90
33881;DHT22;20172;47.530;10.256;2022-07-06T08:32:49;23.80;99.90
33881;DHT22;20172;47.530;10.256;2022-07-06T08:35:14;23.50;99.90
33881;DHT22;20172;47.530;10.256;2022-07-06T08:37:40;23.20;99.90
33881;DHT22;20172;47.530;10.256;2022-07-06T08:40:06;23.10;99.90
33881;DHT22;20172;47.530;10.256;2022-07-06T08:42:32;23.00;99.90
33881;DHT22;20172;47.530;10.256;2022-07-06T08:44:58;23.30;99.90
33881;DHT22;20172;47.530;10.256;2022-07-06T08:47:24;23.50;99.90
33881;DHT22;20172;47.530;10.256;2022-07-06T08:49:51;23.80;99.90
33881;DHT22;20172;47.530;10.256;2022-07-06T08:52:17;24.20;99.90
33881;DHT22;20172;47.530;10.256;2022-07-06T08:54:43;24.50;99.90
33881;DHT22;20172;47.530;10.256;2022-07-06T08:57:08;24.60;99.90
33881;DHT22;20172;47.530;10.256;2022-07-06T08:59:34;24.70;99.90
33881;DHT22;20172;47.530;10.256;2022-07-06T09:02:00;24.70;99.90
33881;DHT22;20172;47.530;10.256;2022-07-06T09:04:25;24.70;99.90
33881;DHT22;20172;47.530;10.256;2022-07-06T09:06:51;24.80;99.90
33881;DHT22;20172;47.530;10.256;2022-07-06T09:09:21;25.00;99.90
33881;DHT22;20172;47.530;10.256;2022-07-06T09:11:48;25.20;99.90
33881;DHT22;20172;47.530;10.256;2022-07-06T09:14:14;25.30;99.90
33881;DHT22;20172;47.530;10.256;2022-07-06T09:16:39;25.50;99.90
33881;DHT22;20172;47.530;10.256;2022-07-06T09:19:05;25.60;99.90
33881;DHT22;20172;47.530;10.256;2022-07-06T09:21:31;25.60;99.90
33881;DHT22;20172;47.530;10.256;2022-07-06T09:23:59;25.40;99.90
33881;DHT22;20172;47.530;10.256;2022-07-06T09:26:24;25.40;99.90
33881;DHT22;20172;47.530;10.256;2022-07-06T09:28:50;25.10;99.90
33881;DHT22;20172;47.530;10.256;2022-07-06T09:31:16;24.80;99.90
33881;DHT22;20172;47.530;10.256;2022-07-06T09:34:01;24.70;99.90
33881;DHT22;20172;47.530;10.256;2022-07-06T09:36:43;24.60;99.90
33881;DHT22;20172;47.530;10.256;2022-07-06T09:41:41;24.70;99.90
33881;DHT22;20172;47.530;10.256;2022-07-06T09:44:06;24.70;99.90
33881;DHT22;20172;47.530;10.256;2022-07-06T09:46:42;24.60;99.90
33881;DHT22;20172;47.530;10.256;2022-07-06T09:49:08;24.50;99.90
33881;DHT22;20172;47.530;10.256;2022-07-06T09:51:37;24.40;99.90
33881;DHT22;20172;47.530;10.256;2022-07-06T09:54:06;24.70;99.90
33881;DHT22;20172;47.530;10.256;2022-07-06T09:56:37;25.00;99.90
33881;DHT22;20172;47.530;10.256;2022-07-06T09:59:12;25.00;99.90
33881;DHT22;20172;47.530;10.256;2022-07-06T10:01:38;25.30;99.90
33881;DHT22;20172;47.530;10.256;2022-07-06T10:04:11;25.40;99.90
33881;DHT22;20172;47.530;10.256;2022-07-06T10:06:40;25.50;99.90
33881;DHT22;20172;47.530;10.256;2022-07-06T10:09:06;25.60;99.90
33881;DHT22;20172;47.530;10.256;2022-07-06T10:11:34;25.60;99.90
33881;DHT22;20172;47.530;10.256;2022-07-06T10:14:00;25.80;99.90
33881;DHT22;20172;47.530;10.256;2022-07-06T10:16:26;26.10;99.90
33881;DHT22;20172;47.530;10.256;2022-07-06T10:18:53;26.30;99.90
33881;DHT22;20172;47.530;10.256;2022-07-06T10:21:20;26.50;99.90
33881;DHT22;20172;47.530;10.256;2022-07-06T10:23:46;26.70;99.90
33881;DHT22;20172;47.530;10.256;2022-07-06T10:26:12;27.00;99.90
33881;DHT22;20172;47.530;10.256;2022-07-06T10:28:39;27.20;99.90
33881;DHT22;20172;47.530;10.256;2022-07-06T10:31:04;27.30;99.90
33881;DHT22;20172;47.530;10.256;2022-07-06T10:33:30;27.30;99.70
33881;DHT22;20172;47.530;10.256;2022-07-06T10:35:56;27.30;99.90
33881;DHT22;20172;47.530;10.256;2022-07-06T10:38:29;27.40;99.50
33881;DHT22;20172;47.530;10.256;2022-07-06T10:40:58;27.40;98.90
33881;DHT22;20172;47.530;10.256;2022-07-06T10:43:36;27.30;97.30
33881;DHT22;20172;47.530;10.256;2022-07-06T10:46:06;27.10;96.80
33881;DHT22;20172;47.530;10.256;2022-07-06T10:48:36;26.90;97.80
33881;DHT22;20172;47.530;10.256;2022-07-06T10:51:02;27.10;98.60
33881;DHT22;20172;47.530;10.256;2022-07-06T10:53:33;27.00;97.10
33881;DHT22;20172;47.530;10.256;2022-07-06T10:55:59;26.90;97.10
33881;DHT22;20172;47.530;10.256;2022-07-06T11:01:10;27.40;95.20
33881;DHT22;20172;47.530;10.256;2022-07-06T11:03:43;27.30;95.60
33881;DHT22;20172;47.530;10.256;2022-07-06T11:08:51;26.50;94.90
33881;DHT22;20172;47.530;10.256;2022-07-06T11:11:37;26.00;95.60
33881;DHT22;20172;47.530;10.256;2022-07-06T11:21:32;25.00;95.30
33881;DHT22;20172;47.530;10.256;2022-07-06T11:23:58;24.90;96.30
33881;DHT22;20172;47.530;10.256;2022-07-06T11:26:24;25.00;95.90
33881;DHT22;20172;47.530;10.256;2022-07-06T11:28:50;25.20;97.00
33881;DHT22;20172;47.530;10.256;2022-07-06T11:31:16;25.50;96.70
33881;DHT22;20172;47.530;10.256;2022-07-06T11:33:44;25.80;96.20
33881;DHT22;20172;47.530;10.256;2022-07-06T11:36:17;25.80;96.80
33881;DHT22;20172;47.530;10.256;2022-07-06T11:38:43;25.80;97.00
33881;DHT22;20172;47.530;10.256;2022-07-06T11:41:09;25.50;96.50
33881;DHT22;20172;47.530;10.256;2022-07-06T11:43:36;25.40;95.90
33881;DHT22;20172;47.530;10.256;2022-07-06T11:46:03;25.20;95.80
33881;DHT22;20172;47.530;10.256;2022-07-06T11:48:28;25.20;96.70
33881;DHT22;20172;47.530;10.256;2022-07-06T11:51:01;25.30;96.00
33881;DHT22;20172;47.530;10.256;2022-07-06T11:53:26;25.40;96.90
33881;DHT22;20172;47.530;10.256;2022-07-06T11:55:52;25.60;95.90
33881;DHT22;20172;47.530;10.256;2022-07-06T11:58:22;25.90;96.00
33881;DHT22;20172;47.530;10.256;2022-07-06T12:01:10;26.30;95.40
33881;DHT22;20172;47.530;10.256;2022-07-06T12:03:36;26.60;94.90
33881;DHT22;20172;47.530;10.256;2022-07-06T12:06:04;26.80;93.90
33881;DHT22;20172;47.530;10.256;2022-07-06T12:08:30;26.80;93.70
33881;DHT22;20172;47.530;10.256;2022-07-06T12:10:55;27.00;93.40
33881;DHT22;20172;47.530;10.256;2022-07-06T12:13:22;27.10;94.20
33881;DHT22;20172;47.530;10.256;2022-07-06T12:15:48;26.80;92.50
33881;DHT22;20172;47.530;10.256;2022-07-06T12:18:14;26.60;93.00
33881;DHT22;20172;47.530;10.256;2022-07-06T12:20:40;26.30;93.70
33881;DHT22;20172;47.530;10.256;2022-07-06T12:23:05;26.30;92.90
33881;DHT22;20172;47.530;10.256;2022-07-06T12:25:35;26.30;93.40
33881;DHT22;20172;47.530;10.256;2022-07-06T12:28:02;26.10;92.40
33881;DHT22;20172;47.530;10.256;2022-07-06T12:30:27;26.20;92.00
33881;DHT22;20172;47.530;10.256;2022-07-06T12:33:12;26.10;91.50
33881;DHT22;20172;47.530;10.256;2022-07-06T12:35:38;25.90;91.30
33881;DHT22;20172;47.530;10.256;2022-07-06T12:38:05;26.10;93.00
33881;DHT22;20172;47.530;10.256;2022-07-06T12:40:34;26.40;92.30
33881;DHT22;20172;47.530;10.256;2022-07-06T12:43:00;26.50;91.60
33881;DHT22;20172;47.530;10.256;2022-07-06T12:45:30;26.90;92.50
33881;DHT22;20172;47.530;10.256;2022-07-06T12:50:31;26.90;90.40
33881;DHT22;20172;47.530;10.256;2022-07-06T12:52:57;27.00;90.20
33881;DHT22;20172;47.530;10.256;2022-07-06T12:55:26;27.40;91.30
33881;DHT22;20172;47.530;10.256;2022-07-06T12:57:52;28.00;90.80
33881;DHT22;20172;47.530;10.256;2022-07-06T13:00:18;28.10;88.50
33881;DHT22;20172;47.530;10.256;2022-07-06T13:02:44;28.00;88.00
33881;DHT22;20172;47.530;10.256;2022-07-06T13:05:11;27.80;90.50
33881;DHT22;20172;47.530;10.256;2022-07-06T13:07:37;27.70;87.00
33881;DHT22;20172;47.530;10.256;2022-07-06T13:10:06;27.40;88.30
33881;DHT22;20172;47.530;10.256;2022-07-06T13:12:33;27.40;88.30
33881;DHT22;20172;47.530;10.256;2022-07-06T13:14:59;27.50;90.90
33881;DHT22;20172;47.530;10.256;2022-07-06T13:17:24;27.80;90.70
33881;DHT22;20172;47.530;10.256;2022-07-06T13:19:50;27.90;85.30
33881;DHT22;20172;47.530;10.256;2022-07-06T13:22:15;27.90;87.30
33881;DHT22;20172;47.530;10.256;2022-07-06T13:24:41;27.50;87.60
33881;DHT22;20172;47.530;10.256;2022-07-06T13:27:07;27.40;85.50
33881;DHT22;20172;47.530;10.256;2022-07-06T13:29:32;27.50;88.40
33881;DHT22;20172;47.530;10.256;2022-07-06T13:31:58;27.50;88.50
33881;DHT22;20172;47.530;10.256;2022-07-06T13:34:24;27.40;88.50
33881;DHT22;20172;47.530;10.256;2022-07-06T13:36:49;27.30;88.60
33881;DHT22;20172;47.530;10.256;2022-07-06T13:39:15;27.20;89.50
33881;DHT22;20172;47.530;10.256;2022-07-06T13:41:41;27.60;91.00
33881;DHT22;20172;47.530;10.256;2022-07-06T13:44:07;27.90;89.20
33881;DHT22;20172;47.530;10.256;2022-07-06T13:46:34;28.30;84.80
33881;DHT22;20172;47.530;10.256;2022-07-06T13:49:02;28.80;86.20
33881;DHT22;20172;47.530;10.256;2022-07-06T13:51:28;29.20;84.40
33881;DHT22;20172;47.530;10.256;2022-07-06T13:53:54;29.50;84.50
33881;DHT22;20172;47.530;10.256;2022-07-06T13:56:20;29.50;80.90
33881;DHT22;20172;47.530;10.256;2022-07-06T13:58:45;29.50;81.50
33881;DHT22;20172;47.530;10.256;2022-07-06T14:01:11;29.30;79.50
33881;DHT22;20172;47.530;10.256;2022-07-06T14:03:37;29.10;79.80
33881;DHT22;20172;47.530;10.256;2022-07-06T14:06:03;29.30;78.30
33881;DHT22;20172;47.530;10.256;2022-07-06T14:08:29;29.10;78.50
33881;DHT22;20172;47.530;10.256;2022-07-06T14:10:55;28.70;78.60
33881;DHT22;20172;47.530;10.256;2022-07-06T14:13:21;28.80;79.20
33881;DHT22;20172;47.530;10.256;2022-07-06T14:15:47;28.80;82.50
33881;DHT22;20172;47.530;10.256;2022-07-06T14:18:13;29.10;83.00
33881;DHT22;20172;47.530;10.256;2022-07-06T14:20:40;29.40;79.60
33881;DHT22;20172;47.530;10.256;2022-07-06T14:23:05;29.20;80.90
33881;DHT22;20172;47.530;10.256;2022-07-06T14:25:31;29.10;75.50
33881;DHT22;20172;47.530;10.256;2022-07-06T14:27:57;29.40;77.60
33881;DHT22;20172;47.530;10.256;2022-07-06T14:30:22;29.80;75.00
33881;DHT22;20172;47.530;10.256;2022-07-06T14:32:48;29.90;76.80
33881;DHT22;20172;47.530;10.256;2022-07-06T14:35:14;30.20;77.00
33881;DHT22;20172;47.530;10.256;2022-07-06T14:37:39;30.00;77.60
33881;DHT22;20172;47.530;10.256;2022-07-06T14:40:05;30.00;73.00
33881;DHT22;20172;47.530;10.256;2022-07-06T14:42:31;30.10;75.00
33881;DHT22;20172;47.530;10.256;2022-07-06T14:44:56;30.10;73.90
33881;DHT22;20172;47.530;10.256;2022-07-06T14:47:22;29.70;75.80
33881;DHT22;20172;47.530;10.256;2022-07-06T14:49:47;29.60;74.30
33881;DHT22;20172;47.530;10.256;2022-07-06T14:52:13;29.50;75.90
33881;DHT22;20172;47.530;10.256;2022-07-06T14:54:39;29.50;74.90
33881;DHT22;20172;47.530;10.256;2022-07-06T14:57:04;29.40;75.80
33881;DHT22;20172;47.530;10.256;2022-07-06T14:59:33;29.40;73.10
33881;DHT22;20172;47.530;10.256;2022-07-06T15:01:59;29.00;74.30
33881;DHT22;20172;47.530;10.256;2022-07-06T15:04:24;28.60;72.80
33881;DHT22;20172;47.530;10.256;2022-07-06T15:06:50;28.60;77.80
33881;DHT22;20172;47.530;10.256;2022-07-06T15:09:16;28.80;77.80
33881;DHT22;20172;47.530;10.256;2022-07-06T15:11:41;28.80;77.10
33881;DHT22;20172;47.530;10.256;2022-07-06T15:14:07;28.70;75.80
33881;DHT22;20172;47.530;10.256;2022-07-06T15:16:32;28.60;77.80
33881;DHT22;20172;47.530;10.256;2022-07-06T15:18:58;28.40;75.70
33881;DHT22;20172;47.530;10.256;2022-07-06T15:21:23;28.30;74.60
33881;DHT22;20172;47.530;10.256;2022-07-06T15:23:49;28.10;77.80
33881;DHT22;20172;47.530;10.256;2022-07-06T15:26:15;28.00;78.10
33881;DHT22;20172;47.530;10.256;2022-07-06T15:28:40;27.90;74.80